Ellicott City, Maryland
Current Conditions -  °F | °C
As of 12:54 AM on Tuesday 21 Oct 2014 (Local Time) from KBWI Reporting Station
Light Rain Light Rain  
Wind Chill: 55°   Ceiling: 7500
Heat Index: 55°   Visibility: 10mi
Dew Point: 48°   Wind: 5mph
Humidity: 77%   Direction: 210°SSW
Pressure: 29.92"   Gusts: NA
Location:  39.27°N, 76.8°W
Report Text: KBWI 210454Z 21004KT 10SM -RA FEW050 BKN075 OVC100 13/09 A2992 RMK AO2 RAB19 SLP132 P0000 T01280089 401890017
Loading
Personal Weather Stations






























Interactive Weather Map
Tropical Storm Tracking
New forecast layout! Learn more

10-Day Weather Forecast

Advertisements
Track Severe Weather on mobile